createdAt,value
2018-04-06T00:01:01.482Z,99.90
2018-04-06T00:03:30.314Z,99.90
2018-04-06T00:05:59.600Z,99.90
2018-04-06T00:08:28.455Z,99.90
2018-04-06T00:10:57.964Z,99.90
2018-04-06T00:13:26.786Z,99.90
2018-04-06T00:15:55.558Z,99.90
2018-04-06T00:18:24.392Z,99.90
2018-04-06T00:20:53.918Z,99.90
2018-04-06T00:23:22.731Z,99.90
2018-04-06T00:25:51.565Z,99.90
2018-04-06T00:28:20.589Z,99.90
2018-04-06T00:30:49.372Z,99.90
2018-04-06T00:33:18.597Z,99.90
2018-04-06T00:35:47.490Z,99.90
2018-04-06T00:38:16.287Z,99.90
2018-04-06T00:40:45.329Z,99.90
2018-04-06T00:43:14.082Z,99.90
2018-04-06T00:45:42.939Z,99.90
2018-04-06T00:48:12.591Z,99.90
2018-04-06T00:50:42.356Z,99.90
2018-04-06T00:53:32.725Z,99.90
2018-04-06T00:56:01.550Z,99.90
2018-04-06T00:58:30.299Z,99.90
2018-04-06T01:00:59.952Z,99.90
2018-04-06T01:03:28.792Z,99.90
2018-04-06T01:05:57.555Z,99.90
2018-04-06T01:08:27.107Z,99.90
2018-04-06T01:10:56.265Z,99.90
2018-04-06T01:13:25.021Z,99.90
2018-04-06T01:15:53.838Z,99.90
2018-04-06T01:18:22.583Z,99.90
2018-04-06T01:20:51.940Z,99.90
2018-04-06T01:23:20.659Z,99.90
2018-04-06T01:25:49.578Z,99.90
2018-04-06T01:28:18.243Z,99.90
2018-04-06T01:30:47.131Z,99.90
2018-04-06T01:33:15.884Z,99.90
2018-04-06T01:35:45.551Z,99.90
2018-04-06T01:38:15.418Z,99.90
2018-04-06T01:40:44.254Z,99.90
2018-04-06T01:43:13.010Z,99.90
2018-04-06T01:45:41.867Z,99.90
2018-04-06T01:48:10.589Z,99.90
2018-04-06T01:50:40.146Z,99.90
2018-04-06T01:53:08.914Z,99.90
2018-04-06T01:55:38.598Z,99.90
2018-04-06T01:58:07.366Z,99.90
2018-04-06T02:00:36.453Z,99.90
2018-04-06T02:03:05.426Z,99.90
2018-04-06T02:05:34.375Z,99.90
2018-04-06T02:08:03.162Z,99.90
2018-04-06T02:10:32.192Z,99.90
2018-04-06T02:13:00.928Z,99.90
2018-04-06T02:15:29.647Z,99.90
2018-04-06T02:17:58.483Z,99.90
2018-04-06T02:20:27.451Z,99.90
2018-04-06T02:22:56.342Z,99.90
2018-04-06T02:25:25.127Z,99.90
2018-04-06T02:27:53.936Z,99.90
2018-04-06T02:30:23.963Z,99.90
2018-04-06T02:32:52.836Z,99.90
2018-04-06T02:35:22.367Z,99.90
2018-04-06T02:37:51.294Z,99.90
2018-04-06T02:40:20.856Z,99.90
2018-04-06T02:42:49.684Z,99.90
2018-04-06T02:45:18.435Z,99.90
2018-04-06T02:47:47.222Z,99.90
2018-04-06T02:50:16.752Z,99.90
2018-04-06T02:52:45.723Z,99.90
2018-04-06T02:55:15.255Z,99.90
2018-04-06T02:57:44.119Z,99.90
2018-04-06T03:00:13.642Z,99.90
2018-04-06T03:02:42.547Z,99.90
2018-04-06T03:05:11.241Z,99.90
2018-04-06T03:07:40.086Z,99.90
2018-04-06T03:10:09.562Z,99.90
2018-04-06T03:12:38.568Z,99.90
2018-04-06T03:15:07.343Z,99.90
2018-04-06T03:17:36.237Z,99.90
2018-04-06T03:20:05.260Z,99.90
2018-04-06T03:22:35.088Z,99.90
2018-04-06T03:25:04.076Z,99.90
2018-04-06T03:27:33.124Z,99.90
2018-04-06T03:30:01.822Z,99.90
2018-04-06T03:32:30.605Z,99.90
2018-04-06T03:34:59.884Z,99.90
2018-04-06T03:37:28.602Z,99.90
2018-04-06T03:39:57.324Z,99.90
2018-04-06T03:42:26.855Z,99.90
2018-04-06T03:44:55.860Z,99.90
2018-04-06T03:47:25.081Z,99.90
2018-04-06T03:49:54.638Z,99.90
2018-04-06T03:52:23.464Z,99.90
2018-04-06T03:54:53.035Z,99.90
2018-04-06T03:57:21.891Z,99.90
2018-04-06T03:59:50.655Z,99.90
2018-04-06T04:02:19.413Z,99.90
2018-04-06T04:04:48.960Z,99.90
2018-04-06T04:07:18.619Z,99.90
2018-04-06T04:09:47.403Z,99.90
2018-04-06T04:12:16.262Z,99.90
2018-04-06T04:14:45.221Z,99.90
2018-04-06T04:17:14.049Z,99.90
2018-04-06T04:19:42.905Z,99.90
2018-04-06T04:22:11.718Z,99.90
2018-04-06T04:24:41.472Z,99.90
2018-04-06T04:27:11.020Z,99.90
2018-04-06T04:29:40.537Z,99.90
2018-04-06T04:32:09.351Z,99.90
2018-04-06T04:34:38.174Z,99.90
2018-04-06T04:37:07.037Z,99.90
2018-04-06T04:39:35.926Z,99.90
2018-04-06T04:42:04.895Z,99.90
2018-04-06T04:44:33.658Z,99.90
2018-04-06T04:47:02.618Z,99.90
2018-04-06T04:49:31.679Z,99.90
2018-04-06T04:52:00.415Z,99.90
2018-04-06T04:54:29.292Z,99.90
2018-04-06T04:56:58.085Z,99.90
2018-04-06T04:59:26.962Z,99.90
2018-04-06T05:01:55.776Z,99.90
2018-04-06T05:04:25.428Z,99.90
2018-04-06T05:06:54.232Z,99.90
2018-04-06T05:09:23.866Z,99.90
2018-04-06T05:11:52.732Z,99.90
2018-04-06T05:14:21.821Z,99.90
2018-04-06T05:16:51.380Z,99.90
2018-04-06T05:19:21.343Z,99.90
2018-04-06T05:21:50.174Z,99.90
2018-04-06T05:24:18.979Z,99.90
2018-04-06T05:26:48.567Z,99.90
2018-04-06T05:29:17.633Z,99.90
2018-04-06T05:31:46.464Z,99.90
2018-04-06T05:34:16.716Z,99.90
2018-04-06T05:36:46.294Z,99.90
2018-04-06T05:39:15.163Z,99.90
2018-04-06T05:41:43.960Z,99.90
2018-04-06T05:44:12.691Z,98.90
2018-04-06T05:46:43.005Z,96.40
2018-04-06T05:49:11.827Z,96.50
2018-04-06T05:51:40.776Z,94.30
2018-04-06T05:54:09.695Z,95.60
2018-04-06T05:56:38.662Z,96.30
2018-04-06T05:59:07.472Z,94.20
2018-04-06T06:01:36.302Z,95.10
2018-04-06T06:04:05.239Z,92.90
2018-04-06T06:06:34.036Z,92.40
2018-04-06T06:09:03.754Z,90.90
2018-04-06T06:11:33.329Z,85.50
2018-04-06T06:14:02.159Z,85.30
2018-04-06T06:16:30.956Z,88.90
2018-04-06T06:18:59.835Z,83.70
2018-04-06T06:21:28.662Z,84.00
2018-04-06T06:23:57.492Z,79.10
2018-04-06T06:26:26.175Z,76.00
2018-04-06T06:28:55.940Z,67.00
2018-04-06T06:31:25.100Z,66.70
2018-04-06T06:33:53.897Z,66.90
2018-04-06T06:36:23.641Z,67.40
2018-04-06T06:38:52.691Z,67.60
2018-04-06T06:41:22.238Z,62.30
2018-04-06T06:43:51.020Z,62.10
2018-04-06T06:46:19.924Z,58.30
2018-04-06T06:48:48.738Z,56.40
2018-04-06T06:51:17.798Z,53.40
2018-04-06T06:53:46.629Z,52.70
2018-04-06T06:56:16.244Z,44.60
2018-04-06T06:58:45.048Z,44.60
2018-04-06T07:01:13.913Z,44.20
2018-04-06T07:03:42.667Z,44.10
2018-04-06T07:06:11.416Z,44.40
2018-04-06T07:08:40.967Z,44.30
2018-04-06T07:11:09.848Z,44.30
2018-04-06T07:13:38.855Z,46.10
2018-04-06T07:16:07.706Z,44.60
2018-04-06T07:18:36.510Z,47.30
2018-04-06T07:21:12.191Z,48.30
2018-04-06T07:23:41.126Z,50.30
2018-04-06T07:26:10.758Z,47.20
2018-04-06T07:28:39.527Z,47.10
2018-04-06T07:31:08.300Z,45.30
2018-04-06T07:33:37.990Z,43.10
2018-04-06T07:36:07.879Z,39.90
2018-04-06T07:38:36.571Z,39.90
2018-04-06T07:41:05.372Z,39.90
2018-04-06T07:43:34.466Z,42.40
2018-04-06T07:46:04.532Z,41.10
2018-04-06T07:48:34.102Z,40.30
2018-04-06T07:51:03.616Z,38.00
2018-04-06T07:53:32.688Z,38.00
2018-04-06T07:56:01.452Z,40.30
2018-04-06T07:58:30.250Z,38.80
2018-04-06T08:00:59.088Z,38.80
2018-04-06T08:03:28.644Z,35.40
2018-04-06T08:05:57.846Z,35.40
2018-04-06T08:08:26.591Z,32.50
2018-04-06T08:10:55.475Z,34.50
2018-04-06T08:13:24.412Z,36.50
2018-04-06T08:15:54.075Z,31.60
2018-04-06T08:18:22.910Z,31.60
2018-04-06T08:20:52.505Z,31.80
2018-04-06T08:23:21.334Z,31.70
2018-04-06T08:25:50.201Z,36.40
2018-04-06T08:28:18.934Z,34.80
2018-04-06T08:30:48.472Z,35.30
2018-04-06T08:33:17.238Z,35.30
2018-04-06T08:35:46.901Z,38.30
2018-04-06T08:38:15.726Z,38.20
2018-04-06T08:40:44.813Z,38.40
2018-04-06T08:43:13.608Z,38.30
2018-04-06T08:45:42.583Z,37.30
2018-04-06T08:48:11.443Z,39.00
2018-04-06T08:50:40.263Z,41.00
2018-04-06T08:53:09.071Z,41.10
2018-04-06T08:55:37.875Z,42.70
2018-04-06T08:58:06.702Z,41.60
2018-04-06T09:00:35.413Z,42.80
2018-04-06T09:03:04.167Z,44.90
2018-04-06T09:05:33.353Z,44.00
2018-04-06T09:08:02.076Z,43.20
2018-04-06T09:10:30.845Z,44.40
2018-04-06T09:12:59.610Z,46.30
2018-04-06T09:15:28.489Z,42.60
2018-04-06T09:17:57.306Z,42.70
2018-04-06T09:20:26.747Z,43.40
2018-04-06T09:22:55.793Z,42.70
2018-04-06T09:25:25.340Z,43.20
2018-04-06T09:27:54.323Z,43.20
2018-04-06T09:30:23.236Z,42.70
2018-04-06T09:32:52.029Z,42.00
2018-04-06T09:35:20.776Z,41.90
2018-04-06T09:37:49.673Z,40.90
2018-04-06T09:40:18.655Z,42.20
2018-04-06T09:42:47.567Z,41.60
2018-04-06T09:45:16.411Z,39.80
2018-04-06T09:47:45.581Z,40.60
2018-04-06T09:50:15.313Z,39.10
2018-04-06T09:52:44.124Z,38.90
2018-04-06T09:55:12.874Z,39.50
2018-04-06T09:57:41.712Z,37.60
2018-04-06T10:00:10.543Z,38.20
2018-04-06T10:02:40.387Z,37.10
2018-04-06T10:05:09.952Z,39.40
2018-04-06T10:07:38.738Z,39.30
2018-04-06T10:10:07.521Z,41.20
2018-04-06T10:12:36.326Z,42.80
2018-04-06T10:15:05.515Z,42.50
2018-04-06T10:17:34.360Z,45.10
2018-04-06T10:20:03.100Z,43.60
2018-04-06T10:22:31.944Z,42.80
2018-04-06T10:25:00.924Z,43.90
2018-04-06T10:27:29.632Z,44.90
2018-04-06T10:29:58.454Z,43.20
2018-04-06T10:32:27.212Z,44.10
2018-04-06T10:34:56.194Z,44.00
2018-04-06T10:37:24.936Z,42.40
2018-04-06T10:39:53.878Z,45.00
2018-04-06T10:42:23.073Z,43.50
2018-04-06T10:44:52.076Z,45.50
2018-04-06T10:47:21.102Z,44.60
2018-04-06T10:49:50.650Z,43.10
2018-04-06T10:52:19.479Z,43.20
2018-04-06T10:54:48.325Z,43.60
2018-04-06T10:57:17.380Z,44.10
2018-04-06T10:59:46.200Z,44.10
2018-04-06T11:02:15.176Z,44.30
2018-04-06T11:04:44.720Z,43.80
2018-04-06T11:07:13.558Z,43.90
2018-04-06T11:09:42.344Z,46.00
2018-04-06T11:12:11.850Z,45.40
2018-04-06T11:14:41.435Z,45.60
2018-04-06T11:17:10.393Z,45.20
2018-04-06T11:19:39.200Z,46.60
2018-04-06T11:22:07.904Z,43.80
2018-04-06T11:24:36.857Z,43.90
2018-04-06T11:27:05.640Z,44.10
2018-04-06T11:29:34.454Z,43.80
2018-04-06T11:32:03.673Z,45.10
2018-04-06T11:34:33.524Z,46.60
2018-04-06T11:37:02.597Z,46.50
2018-04-06T11:39:31.376Z,46.50
2018-04-06T11:42:00.220Z,48.40
2018-04-06T11:44:28.984Z,48.30
2018-04-06T11:46:58.969Z,46.40
2018-04-06T11:49:27.923Z,46.40
2018-04-06T11:51:56.727Z,48.40
2018-04-06T11:54:25.548Z,46.80
2018-04-06T11:56:54.338Z,46.90
2018-04-06T11:59:23.125Z,46.70
2018-04-06T12:01:52.305Z,47.90
2018-04-06T12:04:21.307Z,47.00
2018-04-06T12:06:50.718Z,47.00
2018-04-06T12:09:20.288Z,48.90
2018-04-06T12:11:49.084Z,49.00
2018-04-06T12:14:17.823Z,48.80
2018-04-06T12:16:46.662Z,48.00
2018-04-06T12:19:15.557Z,48.80
2018-04-06T12:21:44.377Z,46.90
2018-04-06T12:24:13.483Z,46.30
2018-04-06T12:26:42.513Z,47.60
2018-04-06T12:29:12.300Z,48.10
2018-04-06T12:31:41.232Z,48.10
2018-04-06T12:34:10.864Z,50.20
2018-04-06T12:36:39.656Z,50.10
2018-04-06T12:39:08.784Z,48.80
2018-04-06T12:41:38.289Z,49.50
2018-04-06T12:44:08.043Z,51.40
2018-04-06T12:46:36.768Z,51.30
2018-04-06T12:49:05.571Z,50.40
2018-04-06T12:51:35.254Z,51.40
2018-04-06T12:54:04.070Z,51.40
2018-04-06T12:56:33.150Z,51.90
2018-04-06T12:59:02.744Z,54.00
2018-04-06T13:01:31.580Z,53.80
2018-04-06T13:04:01.225Z,54.80
2018-04-06T13:06:30.664Z,54.60
2018-04-06T13:08:59.464Z,54.40
2018-04-06T13:11:28.252Z,55.60
2018-04-06T13:13:57.800Z,56.80
2018-04-06T13:16:26.814Z,56.70
2018-04-06T13:18:55.629Z,55.60
2018-04-06T13:21:26.190Z,55.50
2018-04-06T13:23:56.284Z,57.20
2018-04-06T13:26:26.125Z,56.80
2018-04-06T13:28:55.718Z,58.10
2018-04-06T13:31:25.235Z,57.60
2018-04-06T13:33:53.994Z,57.50
2018-04-06T13:36:25.899Z,59.50
2018-04-06T13:38:54.740Z,59.40
2018-04-06T13:41:24.570Z,61.30
2018-04-06T13:43:53.601Z,61.30
2018-04-06T13:46:22.470Z,61.10
2018-04-06T13:48:52.240Z,63.80
2018-04-06T13:51:20.989Z,64.00
2018-04-06T13:53:49.898Z,66.10
2018-04-06T13:56:18.714Z,67.80
2018-04-06T13:58:47.692Z,68.50
2018-04-06T14:01:16.601Z,69.90
2018-04-06T14:03:45.379Z,68.00
2018-04-06T14:06:14.900Z,66.60
2018-04-06T14:08:44.461Z,66.80
2018-04-06T14:11:13.278Z,66.70
2018-04-06T14:13:42.024Z,68.30
2018-04-06T14:16:10.862Z,69.40
2018-04-06T14:18:40.376Z,73.50
2018-04-06T14:21:09.285Z,73.30
2018-04-06T14:23:38.539Z,73.20
2018-04-06T14:26:07.717Z,74.40
2018-04-06T14:28:36.516Z,75.20
2018-04-06T14:31:05.292Z,74.30
2018-04-06T14:33:34.100Z,73.50
2018-04-06T14:36:02.826Z,71.40
2018-04-06T14:38:31.555Z,72.80
2018-04-06T14:41:00.395Z,74.10
2018-04-06T14:43:29.208Z,74.10
2018-04-06T14:45:58.072Z,75.20
2018-04-06T14:48:27.096Z,75.00
2018-04-06T14:50:55.928Z,76.00
2018-04-06T14:53:25.952Z,75.60
2018-04-06T14:55:54.688Z,75.20
2018-04-06T14:58:23.971Z,74.70
2018-04-06T15:00:53.395Z,77.10
2018-04-06T15:03:22.091Z,77.00
2018-04-06T15:05:51.282Z,77.50
2018-04-06T15:08:20.062Z,78.60
2018-04-06T15:10:48.936Z,78.20
2018-04-06T15:13:18.700Z,81.10
2018-04-06T15:15:47.892Z,81.30
2018-04-06T15:18:16.675Z,80.40
2018-04-06T15:20:45.397Z,82.60
2018-04-06T15:23:14.478Z,84.70
2018-04-06T15:25:43.251Z,84.20
2018-04-06T15:28:18.134Z,83.50
2018-04-06T15:30:48.216Z,83.40
2018-04-06T15:33:17.843Z,85.60
2018-04-06T15:35:46.919Z,85.70
2018-04-06T15:38:15.811Z,86.20
2018-04-06T15:40:44.620Z,87.30
2018-04-06T15:43:13.387Z,88.10
2018-04-06T15:45:42.460Z,89.10
2018-04-06T15:48:11.298Z,90.50
2018-04-06T15:50:40.205Z,90.80
2018-04-06T15:53:09.120Z,91.50
2018-04-06T15:55:37.870Z,91.60
2018-04-06T15:58:06.752Z,92.10
2018-04-06T16:00:35.641Z,92.00
2018-04-06T16:03:04.864Z,92.20
2018-04-06T16:05:33.765Z,92.40
2018-04-06T16:08:02.928Z,92.90
2018-04-06T16:10:32.476Z,93.40
2018-04-06T16:13:01.350Z,93.40
2018-04-06T16:15:30.360Z,93.60
2018-04-06T16:17:59.195Z,93.90
2018-04-06T16:20:27.971Z,94.00
2018-04-06T16:22:57.513Z,94.70
2018-04-06T16:25:26.246Z,94.60
2018-04-06T16:27:55.011Z,95.00
2018-04-06T16:30:24.732Z,95.40
2018-04-06T16:32:53.528Z,95.40
2018-04-06T16:35:22.491Z,95.20
2018-04-06T16:37:52.139Z,96.30
2018-04-06T16:40:20.915Z,96.20
2018-04-06T16:42:49.857Z,96.30
2018-04-06T16:45:19.482Z,97.00
2018-04-06T16:47:48.978Z,97.30
2018-04-06T16:50:18.555Z,97.60
2018-04-06T16:52:47.406Z,97.90
2018-04-06T16:55:16.213Z,97.90
2018-04-06T16:57:45.050Z,98.20
2018-04-06T17:00:14.657Z,98.30
2018-04-06T17:02:44.677Z,98.50
2018-04-06T17:05:14.270Z,98.70
2018-04-06T17:07:44.607Z,98.90
2018-04-06T17:10:13.645Z,98.90
2018-04-06T17:12:42.830Z,98.90
2018-04-06T17:15:11.590Z,99.00
2018-04-06T17:17:40.347Z,99.40
2018-04-06T17:20:09.191Z,99.80
2018-04-06T17:22:37.958Z,99.70
2018-04-06T17:25:06.746Z,99.60
2018-04-06T17:27:36.481Z,99.90
2018-04-06T17:30:05.895Z,99.90
2018-04-06T17:32:34.921Z,99.90
2018-04-06T17:35:04.512Z,99.90
2018-04-06T17:37:34.795Z,99.90
2018-04-06T17:40:04.522Z,99.90
2018-04-06T17:42:34.426Z,99.90
2018-04-06T17:45:04.274Z,99.90
2018-04-06T17:47:33.795Z,99.90
2018-04-06T17:50:04.310Z,99.90
2018-04-06T17:52:33.910Z,99.90
2018-04-06T17:55:03.054Z,99.90
2018-04-06T17:57:33.755Z,99.90
2018-04-06T18:00:03.446Z,99.90
2018-04-06T18:02:32.546Z,99.90
2018-04-06T18:05:01.596Z,99.90
2018-04-06T18:07:31.032Z,99.90
2018-04-06T18:10:00.822Z,99.90
2018-04-06T18:12:30.224Z,99.90
2018-04-06T18:15:00.107Z,99.90
2018-04-06T18:17:30.046Z,99.90
2018-04-06T18:19:59.468Z,99.90
2018-04-06T18:22:28.492Z,99.90
2018-04-06T18:24:58.516Z,99.90
2018-04-06T18:27:29.610Z,99.90
2018-04-06T18:30:01.625Z,99.90
2018-04-06T18:32:31.609Z,99.90
2018-04-06T18:35:01.459Z,99.90
2018-04-06T18:37:31.221Z,99.90
2018-04-06T18:40:01.207Z,99.90
2018-04-06T18:42:31.478Z,99.90
2018-04-06T18:45:02.659Z,99.90
2018-04-06T18:47:32.428Z,99.90
2018-04-06T18:50:03.272Z,99.90
2018-04-06T18:52:33.308Z,99.90
2018-04-06T18:55:04.058Z,99.90
2018-04-06T18:57:34.026Z,99.90
2018-04-06T19:00:04.664Z,99.90
2018-04-06T19:02:34.683Z,99.90
2018-04-06T19:18:05.156Z,99.90
2018-04-06T19:20:35.010Z,99.90
2018-04-06T19:23:05.362Z,99.90
2018-04-06T19:25:35.237Z,99.90
2018-04-06T19:28:06.186Z,99.90
2018-04-06T19:30:36.343Z,99.90
2018-04-06T19:33:06.508Z,99.90
2018-04-06T19:35:36.531Z,99.90
2018-04-06T19:38:07.464Z,99.90
2018-04-06T19:40:37.146Z,99.90
2018-04-06T19:43:06.857Z,99.90
2018-04-06T19:45:36.565Z,99.90
2018-04-06T19:48:07.352Z,99.90
2018-04-06T19:50:42.880Z,99.90
2018-04-06T19:53:13.447Z,99.90
2018-04-06T19:55:43.905Z,99.90
2018-04-06T19:58:14.512Z,99.90
2018-04-06T20:00:43.794Z,99.90
2018-04-06T20:03:13.956Z,99.90
2018-04-06T20:05:44.067Z,99.90
2018-04-06T20:08:13.256Z,99.90
2018-04-06T20:10:42.452Z,99.90
2018-04-06T20:13:12.758Z,99.90
2018-04-06T20:15:42.219Z,99.90
2018-04-06T20:18:11.899Z,99.90
2018-04-06T20:20:40.759Z,99.90
2018-04-06T20:23:09.568Z,99.90
2018-04-06T20:25:38.368Z,99.90
2018-04-06T20:28:07.273Z,99.90
2018-04-06T20:30:36.915Z,99.90
2018-04-06T20:33:05.621Z,99.90
2018-04-06T20:35:34.702Z,99.90
2018-04-06T20:38:03.639Z,99.90
2018-04-06T20:40:32.521Z,99.90
2018-04-06T20:43:01.409Z,99.90
2018-04-06T20:45:30.160Z,99.90
2018-04-06T20:48:01.650Z,99.90
2018-04-06T20:50:32.268Z,99.90
2018-04-06T20:53:10.948Z,99.90
2018-04-06T20:55:46.585Z,99.90
2018-04-06T20:58:20.872Z,99.90
2018-04-06T21:00:53.637Z,99.90
2018-04-06T21:03:28.930Z,99.90
2018-04-06T21:06:01.591Z,99.90
2018-04-06T21:08:32.248Z,99.90
2018-04-06T21:11:03.210Z,99.90
2018-04-06T21:13:36.853Z,99.90
2018-04-06T21:16:12.935Z,99.90
2018-04-06T21:18:45.073Z,99.90
2018-04-06T21:21:15.259Z,99.90
2018-04-06T21:23:43.942Z,99.90
2018-04-06T21:26:12.892Z,99.90
2018-04-06T21:28:41.776Z,99.90
2018-04-06T21:31:11.292Z,99.90
2018-04-06T21:33:40.826Z,99.90
2018-04-06T21:36:09.698Z,99.90
2018-04-06T21:38:38.504Z,99.90
2018-04-06T21:41:07.246Z,99.90
2018-04-06T21:43:36.657Z,99.90
2018-04-06T21:46:05.714Z,99.90
2018-04-06T21:48:34.487Z,99.90
2018-04-06T21:51:03.360Z,99.90
2018-04-06T21:53:32.199Z,99.90
2018-04-06T21:56:01.105Z,99.90
2018-04-06T21:58:29.999Z,99.90
2018-04-06T22:00:59.548Z,99.90
2018-04-06T22:03:29.512Z,99.90
2018-04-06T22:05:58.403Z,99.90
2018-04-06T22:08:27.199Z,99.90
2018-04-06T22:10:56.198Z,99.90
2018-04-06T22:13:25.167Z,99.90
2018-04-06T22:15:53.938Z,99.90
2018-04-06T22:18:22.860Z,99.90
2018-04-06T22:20:51.601Z,99.90
2018-04-06T22:23:20.477Z,99.90
2018-04-06T22:25:49.234Z,99.90
2018-04-06T22:28:18.828Z,99.90
2018-04-06T22:30:47.615Z,99.90
2018-04-06T22:33:16.418Z,99.90
2018-04-06T22:35:45.273Z,99.90
2018-04-06T22:38:14.865Z,99.90
2018-04-06T22:40:43.974Z,99.90
2018-04-06T22:43:13.014Z,99.90
2018-04-06T22:45:42.676Z,99.90
2018-04-06T22:48:11.483Z,99.90
2018-04-06T22:50:40.255Z,99.90
2018-04-06T22:53:09.067Z,99.90
2018-04-06T22:55:37.994Z,99.90
2018-04-06T22:58:06.957Z,99.90
2018-04-06T23:00:35.915Z,99.90
2018-04-06T23:03:04.756Z,99.90
2018-04-06T23:05:33.904Z,99.90
2018-04-06T23:08:02.732Z,99.90
2018-04-06T23:10:31.478Z,99.90
2018-04-06T23:13:00.343Z,99.90
2018-04-06T23:15:29.183Z,99.90
2018-04-06T23:17:58.692Z,99.90
2018-04-06T23:20:27.647Z,99.90
2018-04-06T23:22:56.376Z,99.90
2018-04-06T23:25:25.264Z,99.90
2018-04-06T23:27:54.014Z,99.90
2018-04-06T23:30:22.840Z,99.90
2018-04-06T23:32:51.675Z,99.90
2018-04-06T23:35:20.457Z,99.90
2018-04-06T23:37:49.247Z,99.90
2018-04-06T23:40:18.089Z,99.90
2018-04-06T23:42:47.265Z,99.90
2018-04-06T23:45:16.058Z,99.90
2018-04-06T23:47:44.971Z,99.90
2018-04-06T23:50:13.954Z,99.90
2018-04-06T23:52:43.040Z,99.90
2018-04-06T23:55:13.382Z,99.90
2018-04-06T23:57:42.965Z,99.90
